createdAt,value
2023-04-23T00:01:49.842Z,100.00
2023-04-23T00:05:04.881Z,100.00
2023-04-23T00:08:11.879Z,100.00
2023-04-23T00:11:18.913Z,100.00
2023-04-23T00:14:25.962Z,100.00
2023-04-23T00:17:31.983Z,100.00
2023-04-23T00:20:39.604Z,100.00
2023-04-23T00:23:46.349Z,100.00
2023-04-23T00:26:53.805Z,100.00
2023-04-23T00:30:00.568Z,100.00
2023-04-23T00:33:07.213Z,100.00
2023-04-23T00:36:15.088Z,100.00
2023-04-23T00:39:21.037Z,100.00
2023-04-23T00:42:28.316Z,100.00
2023-04-23T00:45:34.885Z,100.00
2023-04-23T00:48:41.516Z,100.00
2023-04-23T00:51:48.813Z,100.00
2023-04-23T00:54:55.040Z,100.00
2023-04-23T00:58:01.941Z,100.00
2023-04-23T01:01:08.864Z,100.00
2023-04-23T01:04:17.644Z,100.00
2023-04-23T01:07:25.378Z,100.00
2023-04-23T01:10:32.744Z,100.00
2023-04-23T01:13:38.406Z,100.00
2023-04-23T01:16:44.796Z,100.00
2023-04-23T01:19:50.725Z,100.00
2023-04-23T01:22:58.317Z,100.00
2023-04-23T01:26:04.760Z,100.00
2023-04-23T01:29:12.407Z,100.00
2023-04-23T01:32:19.104Z,100.00
2023-04-23T01:35:26.831Z,100.00
2023-04-23T01:38:35.464Z,100.00
2023-04-23T01:41:42.476Z,100.00
2023-04-23T01:44:48.919Z,100.00
2023-04-23T01:47:55.532Z,100.00
2023-04-23T01:51:02.159Z,100.00
2023-04-23T01:54:09.645Z,100.00
2023-04-23T01:57:16.314Z,100.00
2023-04-23T02:00:22.504Z,100.00
2023-04-23T02:03:30.595Z,100.00
2023-04-23T02:06:37.068Z,100.00
2023-04-23T02:09:44.515Z,100.00
2023-04-23T02:12:50.870Z,100.00
2023-04-23T02:15:57.308Z,100.00
2023-04-23T02:19:03.290Z,100.00
2023-04-23T02:22:10.479Z,100.00
2023-04-23T02:25:21.960Z,100.00
2023-04-23T02:28:28.190Z,100.00
2023-04-23T02:31:34.474Z,100.00
2023-04-23T02:34:40.730Z,100.00
2023-04-23T02:37:46.783Z,100.00
2023-04-23T02:40:54.461Z,100.00
2023-04-23T02:44:00.775Z,100.00
2023-04-23T02:47:07.029Z,100.00
2023-04-23T02:50:13.547Z,100.00
2023-04-23T02:53:19.737Z,100.00
2023-04-23T02:56:27.249Z,100.00
2023-04-23T02:59:33.971Z,100.00
2023-04-23T03:02:40.170Z,100.00
2023-04-23T03:05:46.499Z,100.00
2023-04-23T03:08:52.607Z,100.00
2023-04-23T03:12:00.704Z,100.00
2023-04-23T03:15:08.217Z,100.00
2023-04-23T03:18:14.452Z,100.00
2023-04-23T03:21:20.620Z,100.00
2023-04-23T03:24:27.378Z,100.00
2023-04-23T03:27:35.408Z,100.00
2023-04-23T03:30:41.770Z,100.00
2023-04-23T03:33:47.998Z,100.00
2023-04-23T03:36:54.089Z,100.00
2023-04-23T03:40:01.456Z,100.00
2023-04-23T03:43:08.824Z,100.00
2023-04-23T03:46:15.184Z,100.00
2023-04-23T03:49:21.314Z,100.00
2023-04-23T03:52:27.615Z,100.00
2023-04-23T03:55:33.649Z,100.00
2023-04-23T03:58:41.447Z,100.00
2023-04-23T04:01:49.324Z,100.00
2023-04-23T04:04:56.745Z,100.00
2023-04-23T04:08:05.162Z,100.00
2023-04-23T05:16:47.192Z,100.00
2023-04-23T05:19:53.580Z,100.00
2023-04-23T05:23:02.378Z,100.00
2023-04-23T05:26:08.329Z,100.00
2023-04-23T05:29:18.062Z,100.00
2023-04-23T05:32:25.756Z,100.00
2023-04-23T05:35:32.114Z,100.00
2023-04-23T05:38:37.896Z,100.00
2023-04-23T05:41:43.901Z,100.00
2023-04-23T05:44:50.128Z,100.00
2023-04-23T05:47:57.796Z,100.00
2023-04-23T05:51:04.177Z,100.00
2023-04-23T05:54:10.657Z,100.00
2023-04-23T05:57:17.278Z,100.00
2023-04-23T06:00:23.637Z,100.00
2023-04-23T06:03:31.526Z,100.00
2023-04-23T06:06:38.193Z,100.00
2023-04-23T06:09:44.680Z,100.00
2023-04-23T06:12:50.907Z,100.00
2023-04-23T06:15:57.082Z,100.00
2023-04-23T06:19:04.996Z,100.00
2023-04-23T06:22:11.479Z,100.00
2023-04-23T06:25:17.726Z,100.00
2023-04-23T06:28:23.818Z,100.00
2023-04-23T06:31:30.351Z,100.00
2023-04-23T06:34:46.645Z,100.00
2023-04-23T06:37:59.564Z,100.00
2023-04-23T06:41:06.233Z,100.00
2023-04-23T06:44:12.650Z,100.00
2023-04-23T06:47:19.031Z,100.00
2023-04-23T06:50:26.673Z,100.00
2023-04-23T06:53:33.194Z,100.00
2023-04-23T06:56:39.681Z,100.00
2023-04-23T06:59:46.223Z,100.00
2023-04-23T07:02:52.552Z,100.00
2023-04-23T07:06:00.594Z,100.00
2023-04-23T07:09:06.549Z,100.00
2023-04-23T07:12:12.891Z,100.00
2023-04-23T07:15:19.411Z,100.00
2023-04-23T07:18:25.552Z,100.00
2023-04-23T07:21:33.262Z,99.89
2023-04-23T07:24:39.765Z,100.00
2023-04-23T07:27:45.981Z,99.83
2023-04-23T07:30:52.398Z,98.00
2023-04-23T07:33:58.274Z,100.00
2023-04-23T07:37:05.874Z,100.00
2023-04-23T07:40:12.702Z,100.00
2023-04-23T07:43:19.073Z,90.58
2023-04-23T07:46:25.651Z,94.66
2023-04-23T07:49:32.183Z,98.25
2023-04-23T07:52:39.570Z,100.00
2023-04-23T07:55:45.827Z,90.68
2023-04-23T07:58:54.169Z,88.48
2023-04-23T08:02:00.941Z,93.96
2023-04-23T08:05:08.386Z,93.58
2023-04-23T08:08:16.371Z,95.45
2023-04-23T08:11:22.894Z,92.00
2023-04-23T08:14:29.065Z,95.93
2023-04-23T08:17:35.633Z,95.98
2023-04-23T08:20:41.876Z,86.18
2023-04-23T08:23:49.402Z,87.96
2023-04-23T08:26:55.924Z,83.86
2023-04-23T08:30:02.241Z,85.38
2023-04-23T08:33:08.923Z,85.42
2023-04-23T08:36:15.727Z,81.30
2023-04-23T08:39:23.593Z,84.81
2023-04-23T08:42:39.293Z,86.30
2023-04-23T08:45:48.668Z,82.21
2023-04-23T08:48:56.025Z,76.16
2023-04-23T08:52:16.413Z,79.84
2023-04-23T08:55:24.901Z,74.63
2023-04-23T08:58:32.343Z,73.61
2023-04-23T09:01:39.170Z,67.79
2023-04-23T09:04:49.565Z,67.41
2023-04-23T09:07:59.412Z,70.00
2023-04-23T09:11:07.974Z,64.47
2023-04-23T09:14:15.038Z,67.15
2023-04-23T09:17:24.170Z,64.85
2023-04-23T09:20:30.288Z,61.86
2023-04-23T09:23:41.421Z,57.88
2023-04-23T09:26:50.542Z,57.18
2023-04-23T09:29:57.738Z,56.62
2023-04-23T09:33:06.531Z,54.99
2023-04-23T09:36:16.364Z,53.05
2023-04-23T09:39:24.295Z,53.01
2023-04-23T09:42:32.576Z,50.04
2023-04-23T09:45:48.765Z,49.71
2023-04-23T09:48:58.209Z,55.80
2023-04-23T09:52:08.415Z,56.06
2023-04-23T09:55:14.846Z,55.74
2023-04-23T09:58:28.811Z,55.71
2023-04-23T10:01:35.480Z,55.11
2023-04-23T10:04:42.184Z,52.87
2023-04-23T10:07:50.341Z,51.35
2023-04-23T10:11:09.546Z,51.35
2023-04-23T10:14:25.702Z,48.85
2023-04-23T10:17:32.727Z,46.78
2023-04-23T10:20:38.820Z,45.99
2023-04-23T10:23:48.003Z,48.43
2023-04-23T10:26:58.429Z,45.75
2023-04-23T10:30:07.746Z,44.84
2023-04-23T10:33:26.559Z,46.03
2023-04-23T10:36:36.242Z,45.98
2023-04-23T10:39:46.094Z,46.21
2023-04-23T10:42:53.195Z,44.60
2023-04-23T10:46:01.789Z,42.60
2023-04-23T10:49:15.373Z,43.15
2023-04-23T10:52:25.116Z,43.20
2023-04-23T10:55:33.958Z,41.46
2023-04-23T10:58:52.738Z,42.19
2023-04-23T11:02:07.445Z,42.33
2023-04-23T11:05:13.678Z,39.97
2023-04-23T11:08:20.136Z,39.94
2023-04-23T11:11:41.388Z,41.97
2023-04-23T11:14:50.119Z,41.74
2023-04-23T11:18:03.997Z,39.68
2023-04-23T11:21:10.634Z,39.60
2023-04-23T11:24:17.080Z,39.54
2023-04-23T11:27:23.484Z,37.78
2023-04-23T11:30:31.409Z,36.61
2023-04-23T11:33:40.291Z,38.97
2023-04-23T11:36:47.786Z,37.28
2023-04-23T11:39:54.267Z,42.04
2023-04-23T11:43:00.420Z,41.31
2023-04-23T11:46:06.725Z,41.30
2023-04-23T11:49:14.864Z,41.51
2023-04-23T11:52:21.257Z,40.70
2023-04-23T11:55:27.662Z,40.58
2023-04-23T11:58:33.790Z,37.71
2023-04-23T12:01:48.006Z,34.73
2023-04-23T12:04:56.344Z,34.52
2023-04-23T12:08:10.399Z,32.65
2023-04-23T12:11:16.807Z,35.49
2023-04-23T12:14:28.975Z,35.72
2023-04-23T12:17:36.250Z,35.66
2023-04-23T12:20:44.309Z,37.48
2023-04-23T12:23:53.208Z,34.35
2023-04-23T12:27:02.872Z,33.87
2023-04-23T12:30:11.883Z,35.45
2023-04-23T12:33:18.966Z,35.73
2023-04-23T12:36:29.968Z,32.80
2023-04-23T12:39:36.584Z,33.07
2023-04-23T12:42:42.760Z,33.36
2023-04-23T12:45:52.417Z,33.56
2023-04-23T12:48:59.003Z,32.27
2023-04-23T12:52:08.353Z,34.59
2023-04-23T12:55:15.111Z,34.10
2023-04-23T12:58:24.165Z,32.92
2023-04-23T13:01:34.146Z,34.76
2023-04-23T13:04:40.626Z,33.27
2023-04-23T13:07:48.318Z,34.61
2023-04-23T13:10:54.481Z,34.95
2023-04-23T13:14:00.866Z,36.19
2023-04-23T13:17:08.372Z,36.80
2023-04-23T13:20:14.505Z,37.09
2023-04-23T13:23:22.016Z,40.14
2023-04-23T13:26:30.791Z,40.09
2023-04-23T13:29:37.101Z,40.52
2023-04-23T13:32:43.613Z,40.62
2023-04-23T13:35:49.724Z,39.42
2023-04-23T13:38:57.704Z,39.20
2023-04-23T13:42:09.535Z,38.90
2023-04-23T13:45:16.931Z,39.80
2023-04-23T13:48:23.376Z,41.32
2023-04-23T13:51:35.456Z,40.47
2023-04-23T13:54:43.728Z,41.02
2023-04-23T13:57:50.032Z,39.95
2023-04-23T14:00:56.124Z,41.71
2023-04-23T14:04:04.428Z,42.38
2023-04-23T14:07:10.743Z,43.53
2023-04-23T14:10:19.022Z,43.84
2023-04-23T14:13:25.185Z,43.85
2023-04-23T14:16:31.559Z,44.60
2023-04-23T14:19:38.101Z,43.63
2023-04-23T14:22:44.702Z,44.05
2023-04-23T14:25:54.974Z,42.62
2023-04-23T14:29:05.274Z,41.76
2023-04-23T14:32:12.630Z,42.45
2023-04-23T14:35:24.526Z,43.08
2023-04-23T14:38:36.583Z,44.87
2023-04-23T14:41:44.858Z,44.36
2023-04-23T14:44:53.490Z,44.51
2023-04-23T14:48:00.645Z,45.96
2023-04-23T14:51:07.192Z,47.10
2023-04-23T14:54:13.708Z,46.23
2023-04-23T14:57:21.636Z,48.93
2023-04-23T15:00:28.234Z,48.68
2023-04-23T15:03:35.087Z,50.75
2023-04-23T15:06:41.728Z,50.08
2023-04-23T15:09:48.038Z,50.99
2023-04-23T15:13:04.621Z,50.97
2023-04-23T15:16:28.431Z,53.05
2023-04-23T15:19:46.597Z,54.64
2023-04-23T15:22:53.060Z,57.82
2023-04-23T15:25:59.404Z,55.26
2023-04-23T15:29:09.077Z,55.65
2023-04-23T15:32:16.696Z,55.58
2023-04-23T15:35:23.602Z,57.16
2023-04-23T15:38:29.883Z,56.01
2023-04-23T15:41:39.319Z,57.26
2023-04-23T15:44:50.616Z,58.88
2023-04-23T15:47:56.987Z,58.89
2023-04-23T15:51:03.326Z,62.54
2023-04-23T15:54:09.759Z,61.43
2023-04-23T15:57:16.502Z,61.36
2023-04-23T16:00:24.759Z,61.58
2023-04-23T16:03:31.462Z,62.51
2023-04-23T16:06:38.359Z,64.00
2023-04-23T16:09:44.596Z,66.85
2023-04-23T16:12:50.798Z,71.41
2023-04-23T16:15:58.599Z,74.98
2023-04-23T16:19:05.117Z,78.64
2023-04-23T16:22:11.589Z,74.16
2023-04-23T16:25:18.192Z,77.51
2023-04-23T16:28:24.847Z,75.58
2023-04-23T16:31:32.549Z,77.75
2023-04-23T16:34:38.968Z,79.31
2023-04-23T16:37:44.955Z,78.79
2023-04-23T16:40:51.731Z,75.89
2023-04-23T16:43:58.062Z,70.59
2023-04-23T16:47:05.910Z,74.92
2023-04-23T16:50:13.056Z,77.51
2023-04-23T16:53:19.138Z,78.82
2023-04-23T16:56:25.657Z,77.98
2023-04-23T16:59:32.023Z,79.83
2023-04-23T17:02:42.043Z,79.76
2023-04-23T17:05:51.614Z,82.66
2023-04-23T17:08:59.464Z,85.48
2023-04-23T17:12:07.924Z,85.86
2023-04-23T17:15:14.181Z,88.35
2023-04-23T17:18:21.724Z,91.43
2023-04-23T17:21:30.441Z,91.58
2023-04-23T17:24:37.757Z,93.40
2023-04-23T17:27:45.941Z,94.55
2023-04-23T17:30:54.037Z,94.55
2023-04-23T17:34:01.412Z,95.71
2023-04-23T17:37:07.513Z,95.00
2023-04-23T17:40:14.050Z,96.44
2023-04-23T17:43:21.028Z,97.07
2023-04-23T17:46:27.582Z,97.65
2023-04-23T17:49:35.041Z,96.56
2023-04-23T17:52:41.394Z,98.21
2023-04-23T17:55:50.401Z,97.67
2023-04-23T17:58:56.184Z,97.19
2023-04-23T18:02:03.834Z,99.60
2023-04-23T18:05:13.180Z,97.75
2023-04-23T18:08:19.651Z,99.87
2023-04-23T18:11:25.968Z,100.00
2023-04-23T18:14:32.027Z,100.00
2023-04-23T18:17:38.273Z,100.00
2023-04-23T18:20:46.447Z,100.00
2023-04-23T18:23:53.136Z,100.00
2023-04-23T18:26:59.628Z,100.00
2023-04-23T18:30:08.329Z,100.00
2023-04-23T18:33:27.379Z,100.00
2023-04-23T18:36:39.160Z,100.00
2023-04-23T18:39:45.945Z,100.00
2023-04-23T18:42:52.455Z,100.00
2023-04-23T18:45:59.064Z,100.00
2023-04-23T18:49:07.827Z,100.00
2023-04-23T18:52:15.792Z,100.00
2023-04-23T18:55:22.150Z,100.00
2023-04-23T18:58:30.288Z,100.00
2023-04-23T19:01:37.199Z,100.00
2023-04-23T19:04:43.884Z,100.00
2023-04-23T19:07:52.005Z,100.00
2023-04-23T19:10:58.778Z,100.00
2023-04-23T19:14:05.338Z,100.00
2023-04-23T19:17:11.725Z,100.00
2023-04-23T19:20:18.749Z,100.00
2023-04-23T19:23:26.677Z,100.00
2023-04-23T19:26:33.169Z,100.00
2023-04-23T19:29:39.826Z,100.00
2023-04-23T19:32:46.294Z,100.00
2023-04-23T19:35:52.499Z,100.00
2023-04-23T19:39:00.199Z,100.00
2023-04-23T19:42:07.238Z,100.00
2023-04-23T19:45:15.559Z,100.00
2023-04-23T19:48:22.057Z,100.00
2023-04-23T19:51:32.992Z,100.00
2023-04-23T19:54:42.149Z,100.00
2023-04-23T19:57:48.830Z,100.00
2023-04-23T20:00:55.299Z,100.00
2023-04-23T20:04:01.653Z,100.00
2023-04-23T20:07:08.298Z,100.00
2023-04-23T20:10:17.514Z,100.00
2023-04-23T20:13:25.233Z,100.00
2023-04-23T20:16:31.787Z,100.00
2023-04-23T20:19:38.586Z,100.00
2023-04-23T20:22:44.861Z,100.00
2023-04-23T20:25:52.466Z,100.00
2023-04-23T20:28:58.925Z,100.00
2023-04-23T20:32:05.286Z,100.00
2023-04-23T20:35:30.874Z,100.00
2023-04-23T20:38:38.121Z,100.00
2023-04-23T20:41:46.743Z,100.00
2023-04-23T20:44:53.150Z,100.00
2023-04-23T20:48:02.081Z,100.00
2023-04-23T20:51:08.255Z,100.00
2023-04-23T20:54:14.545Z,100.00
2023-04-23T20:57:21.900Z,100.00
2023-04-23T21:00:28.450Z,100.00
2023-04-23T21:03:37.028Z,100.00
2023-04-23T21:06:44.075Z,100.00
2023-04-23T21:09:50.328Z,100.00
2023-04-23T21:12:58.549Z,100.00
2023-04-23T21:16:05.201Z,100.00
2023-04-23T21:19:11.520Z,100.00
2023-04-23T21:22:17.597Z,100.00
2023-04-23T21:25:23.813Z,100.00
2023-04-23T21:28:32.417Z,100.00
2023-04-23T21:31:44.976Z,100.00
2023-04-23T21:34:51.417Z,100.00
2023-04-23T21:37:57.840Z,100.00
2023-04-23T21:41:04.398Z,100.00
2023-04-23T21:44:12.009Z,100.00
2023-04-23T21:47:18.489Z,100.00
2023-04-23T21:50:25.100Z,100.00
2023-04-23T21:53:31.609Z,100.00
2023-04-23T21:56:38.082Z,100.00
2023-04-23T21:59:45.962Z,100.00
2023-04-23T22:02:55.193Z,100.00
2023-04-23T22:06:02.784Z,100.00
2023-04-23T22:09:10.323Z,100.00
2023-04-23T22:12:16.981Z,100.00
2023-04-23T22:15:25.790Z,100.00
2023-04-23T22:18:33.604Z,100.00
2023-04-23T22:21:39.890Z,100.00
2023-04-23T22:24:46.437Z,100.00
2023-04-23T22:27:52.796Z,100.00
2023-04-23T22:31:00.789Z,100.00
2023-04-23T22:34:07.010Z,100.00
2023-04-23T22:37:13.584Z,100.00
2023-04-23T22:40:20.015Z,100.00
2023-04-23T22:43:26.383Z,100.00
2023-04-23T22:46:34.667Z,100.00
2023-04-23T22:49:42.278Z,100.00
2023-04-23T22:52:49.084Z,100.00
2023-04-23T22:55:55.945Z,100.00
2023-04-23T22:59:02.374Z,100.00
2023-04-23T23:02:10.097Z,100.00
2023-04-23T23:05:16.538Z,100.00
2023-04-23T23:08:22.643Z,100.00
2023-04-23T23:11:29.795Z,100.00
2023-04-23T23:14:37.937Z,100.00
2023-04-23T23:17:45.661Z,100.00
2023-04-23T23:20:51.984Z,100.00
2023-04-23T23:23:58.336Z,100.00
2023-04-23T23:27:04.407Z,100.00
2023-04-23T23:30:11.636Z,100.00
2023-04-23T23:33:19.624Z,100.00
2023-04-23T23:36:26.255Z,100.00
2023-04-23T23:39:32.355Z,100.00
2023-04-23T23:42:38.636Z,100.00
2023-04-23T23:45:45.267Z,100.00
2023-04-23T23:48:53.200Z,100.00
2023-04-23T23:51:59.538Z,100.00
2023-04-23T23:55:07.176Z,100.00
2023-04-23T23:58:13.386Z,100.00
